Portada
METAR-TAF:

METAR-TAF

Aeropuertos :

Brunéi, Brunéi

Aeropuerto Internacional de Brunéi

latitud: 04-56N, longitud: 114-56E, altitud: 22 m

Observación

El informe se hizo hace 17 minutos, a las 20:30 UTC
Viento 2 kt del suroeste
Temperatura 26°C
Humedad 94%
Presión 1007 hPa
Visibilidad: 9000 m
Escasas nubes a una altura de 1500 ft
Cielo nuboso a una altura de 28000 ft

METAR: WBSB 242030Z 23002KT 9000 FEW015 BKN280 26/25 Q1007 NOSIG

Hora: 04:47 (20:47 UTC)

Pronóstico

El informe se hizo hace 3 horas y 47 minutos, a las 17:00 UTC
Pronóstico válido del 24 a las 18 UTC al 26 a las 00 UTC
Viento 3 kt del sur-suroeste
Visibilidad 10 km o más
Escasas nubes a una altura de 1500 ft
Evolucionando progresivamente
del 25 a las 04 UTC al 25 a las 06 UTC
Viento 8 kt del oeste
Escasas nubes a una altura de 1600 ft
Escasas nubes a una altura de 1700 ft, Cumulonimbus.

TAF: WBSB 241700Z 2418/2600 20003KT 9999 FEW015 BECMG 2504/2506 28008KT FEW016 FEW017CB

Observaciones y pronósticos meteorológicos de más de 4000 aeropuertos (mensajes METAR y TAF).

Los puntos amarillos y rojos representan las estaciones disponibles.

Ponga el ratón en el punto deseado para ver el nombre de la estación.

Haga clic para ver las observaciones y los pronósticos meteorológicos.

Para cambiar el mapa : haga clic en los botones verdes con una cruz de color negro para hacer un zoom, en el botón verde con un guión para alejar o en las flechas verdes para mapas adyacentes.


METAR-TAF: